Time;durP1;ratioP1;P1;durP2;ratioP2;P2;SDS_P1;SDS_P2;PMS_P1;PMS_P2;Temp;Humidity;BMP_temperature;BMP_pressure;BME280_temperature;BME280_humidity;BME280_pressure;Samples;Min_cycle;Max_cycle;Signal;HPM_P1;HPM_P2
2022/07/05 00:04:20;;;;;;;7.8;9.4;;;;;;;21.5;100;98550;;;;
2022/07/05 00:14:20;;;;;;;8.6;12.1;;;;;;;21.4;100;98550;;;;
2022/07/05 00:25:20;;;;;;;8.6;12.1;;;;;;;21.3;100;98560;;;;
2022/07/05 00:35:20;;;;;;;8.6;12.1;;;;;;;21.5;100;98570;;;;
2022/07/05 00:46:20;;;;;;;8.8;14.3;;;;;;;21.3;100;98590;;;;
2022/07/05 00:57:20;;;;;;;8.8;14.3;;;;;;;21.2;100;98600;;;;
2022/07/05 01:08:20;;;;;;;7.3;11.5;;;;;;;21.2;100;98600;;;;
2022/07/05 01:19:20;;;;;;;7.3;11.5;;;;;;;21.3;100;98590;;;;
2022/07/05 01:29:20;;;;;;;7.3;11.5;;;;;;;21.3;100;98580;;;;
2022/07/05 01:40:20;;;;;;;5.3;9;;;;;;;21.2;100;98580;;;;
2022/07/05 01:50:20;;;;;;;5.3;9;;;;;;;21.3;100;98570;;;;
2022/07/05 02:00:20;;;;;;;5.3;9;;;;;;;21.2;100;98570;;;;
2022/07/05 02:11:20;;;;;;;5.3;8.7;;;;;;;21.2;100;98570;;;;
2022/07/05 02:21:20;;;;;;;5.3;8.7;;;;;;;21;100;98580;;;;
2022/07/05 02:32:20;;;;;;;5.3;8.7;;;;;;;21.1;100;98590;;;;
2022/07/05 02:43:20;;;;;;;4.3;8.2;;;;;;;21.2;100;98590;;;;
2022/07/05 02:53:20;;;;;;;4.3;8.2;;;;;;;21.1;100;98600;;;;
2022/07/05 03:03:20;;;;;;;4.3;8.2;;;;;;;20.8;100;98600;;;;
2022/07/05 03:14:20;;;;;;;4.9;7.7;;;;;;;20.7;100;98610;;;;
2022/07/05 03:24:20;;;;;;;4.9;7.7;;;;;;;20.9;100;98610;;;;
2022/07/05 03:35:20;;;;;;;4.9;7.7;;;;;;;20.7;100;98620;;;;
2022/07/05 03:46:20;;;;;;;4.4;8.3;;;;;;;20.4;100;98610;;;;
2022/07/05 03:56:22;;;;;;;4.4;8.3;;;;;;;20.4;100;98630;;;;
2022/07/05 04:07:20;;;;;;;5.1;8.1;;;;;;;20.5;100;98650;;;;
2022/07/05 04:17:20;;;;;;;5.1;8.1;;;;;;;20.6;100;98650;;;;
2022/07/05 04:28:20;;;;;;;5.1;8.1;;;;;;;20.5;100;98650;;;;
2022/07/05 04:39:20;;;;;;;4.1;7.2;;;;;;;20.1;100;98630;;;;
2022/07/05 04:49:22;;;;;;;4.1;7.2;;;;;;;20.2;100;98620;;;;
2022/07/05 04:59:20;;;;;;;4.1;7.2;;;;;;;20.5;100;98650;;;;
2022/07/05 05:10:20;;;;;;;4;7.1;;;;;;;20.5;100;98630;;;;
2022/07/05 05:21:20;;;;;;;4;7.1;;;;;;;20.3;100;98640;;;;
2022/07/05 05:32:20;;;;;;;4;7.1;;;;;;;20.3;100;98640;;;;
2022/07/05 05:42:20;;;;;;;3.3;5.3;;;;;;;19.8;100;98640;;;;
2022/07/05 05:52:20;;;;;;;3.3;5.3;;;;;;;20.2;100;98670;;;;
2022/07/05 06:03:22;;;;;;;3.3;5.3;;;;;;;20.2;100;98710;;;;
2022/07/05 06:13:20;;;;;;;4.3;6.7;;;;;;;20.2;100;98760;;;;
2022/07/05 06:24:20;;;;;;;4.3;6.7;;;;;;;19.9;100;98780;;;;
2022/07/05 06:35:20;;;;;;;4.3;6.7;;;;;;;19.9;100;98790;;;;
2022/07/05 06:46:20;;;;;;;5.5;9.6;;;;;;;19.8;100;98790;;;;
2022/07/05 06:56:20;;;;;;;5.5;9.6;;;;;;;19.5;100;98800;;;;
2022/07/05 07:18:20;;;;;;;6.2;11.1;;;;;;;19.9;100;98780;;;;
2022/07/05 07:28:20;;;;;;;6.2;11.1;;;;;;;20.2;100;98780;;;;
2022/07/05 07:38:20;;;;;;;4.9;6.7;;;;;;;20.4;100;98770;;;;
2022/07/05 07:49:20;;;;;;;4.9;6.7;;;;;;;20.4;100;98770;;;;
2022/07/05 08:00:20;;;;;;;4.9;6.7;;;;;;;20.4;100;98770;;;;
2022/07/05 08:10:20;;;;;;;5.1;7.9;;;;;;;20.5;100;98770;;;;
2022/07/05 08:21:37;;;;;;;5.1;7.9;;;;;;;20.7;100;98770;;;;
2022/07/05 08:32:20;;;;;;;5.1;7.9;;;;;;;20.8;100;98760;;;;
2022/07/05 08:43:20;;;;;;;6;8.2;;;;;;;20.9;100;98750;;;;
2022/07/05 08:53:20;;;;;;;6;8.2;;;;;;;20.8;100;98740;;;;
2022/07/05 09:03:20;;;;;;;6;8.2;;;;;;;20.6;100;98740;;;;
2022/07/05 09:13:20;;;;;;;6.3;8.5;;;;;;;20.6;100;98730;;;;
2022/07/05 09:24:20;;;;;;;6.3;8.5;;;;;;;20.9;100;98740;;;;
2022/07/05 09:34:21;;;;;;;6.3;8.5;;;;;;;20.7;100;98760;;;;
2022/07/05 09:45:20;;;;;;;7.2;9.5;;;;;;;21.2;100;98770;;;;
2022/07/05 09:55:20;;;;;;;7.2;9.5;;;;;;;21.2;100;98760;;;;
2022/07/05 10:06:20;;;;;;;7.2;9.5;;;;;;;21.4;100;98750;;;;
2022/07/05 10:16:20;;;;;;;6.7;8.4;;;;;;;21.6;100;98750;;;;
2022/07/05 10:26:20;;;;;;;6.7;8.4;;;;;;;21.9;100;98750;;;;
2022/07/05 10:37:20;;;;;;;6.6;9.4;;;;;;;22;100;98750;;;;
2022/07/05 10:47:21;;;;;;;6.6;9.4;;;;;;;22.1;100;98750;;;;
2022/07/05 11:08:22;;;;;;;4.8;7.3;;;;;;;22.9;100;98740;;;;
2022/07/05 11:19:21;;;;;;;4.8;7.3;;;;;;;23.4;100;98740;;;;
2022/07/05 11:30:20;;;;;;;4.8;7.3;;;;;;;23.6;100;98730;;;;
2022/07/05 11:40:20;;;;;;;4.1;7.1;;;;;;;23.6;100;98730;;;;
2022/07/05 11:51:20;;;;;;;4.1;7.1;;;;;;;23.3;100;98720;;;;
2022/07/05 12:01:20;;;;;;;4.1;7.1;;;;;;;23.1;100;98710;;;;
2022/07/05 12:12:53;;;;;;;6.1;10.1;;;;;;;22.5;100;98710;;;;
2022/07/05 12:22:20;;;;;;;6.1;10.1;;;;;;;22;100;98700;;;;
2022/07/05 12:33:22;;;;;;;6.1;10.1;;;;;;;21.7;100;98710;;;;
2022/07/05 12:43:20;;;;;;;7.8;10.2;;;;;;;21.5;100;98710;;;;
2022/07/05 13:04:20;;;;;;;7.8;10.2;;;;;;;21.2;100;98710;;;;
2022/07/05 13:14:20;;;;;;;8.3;10.5;;;;;;;21;100;98700;;;;
2022/07/05 13:25:20;;;;;;;8.3;10.5;;;;;;;21.4;100;98720;;;;
2022/07/05 13:35:20;;;;;;;8.3;10.5;;;;;;;21.5;100;98700;;;;
2022/07/05 13:46:20;;;;;;;7.3;10;;;;;;;21.9;100;98710;;;;
2022/07/05 13:57:20;;;;;;;7.3;10;;;;;;;21.9;100;98710;;;;
2022/07/05 14:08:21;;;;;;;5.5;7.2;;;;;;;21.9;100;98700;;;;
2022/07/05 14:18:20;;;;;;;5.5;7.2;;;;;;;22;100;98700;;;;
2022/07/05 14:29:20;;;;;;;5.5;7.2;;;;;;;21.9;100;98700;;;;
2022/07/05 14:40:23;;;;;;;4;8.5;;;;;;;22;100;98690;;;;
2022/07/05 14:51:22;;;;;;;4;8.5;;;;;;;21.9;100;98690;;;;
2022/07/05 15:01:20;;;;;;;4;8.5;;;;;;;21.8;100;98680;;;;
2022/07/05 15:11:20;;;;;;;2.3;5.5;;;;;;;21.8;100;98680;;;;
2022/07/05 15:22:20;;;;;;;2.3;5.5;;;;;;;21.5;100;98670;;;;
2022/07/05 15:32:20;;;;;;;2.3;5.5;;;;;;;21.4;100;98670;;;;
2022/07/05 15:42:20;;;;;;;3;5.6;;;;;;;21.4;100;98660;;;;
2022/07/05 15:53:20;;;;;;;3;5.6;;;;;;;21.1;100;98650;;;;
2022/07/05 16:04:28;;;;;;;3;5.6;;;;;;;20.7;100;98640;;;;
2022/07/05 16:14:20;;;;;;;4.6;6.9;;;;;;;20.7;100;98630;;;;
2022/07/05 16:24:20;;;;;;;4.6;6.9;;;;;;;20.4;100;98630;;;;
2022/07/05 16:35:20;;;;;;;4.6;6.9;;;;;;;20.3;100;98630;;;;
2022/07/05 16:46:21;;;;;;;16.8;22.2;;;;;;;20.2;100;98630;;;;
2022/07/05 16:57:20;;;;;;;16.8;22.2;;;;;;;20.2;100;98630;;;;
2022/07/05 17:08:20;;;;;;;6.4;8.9;;;;;;;20;100;98630;;;;
2022/07/05 17:18:22;;;;;;;6.4;8.9;;;;;;;19.8;100;98630;;;;
2022/07/05 17:28:20;;;;;;;6.4;8.9;;;;;;;19.7;100;98620;;;;
2022/07/05 17:39:20;;;;;;;4;7.3;;;;;;;19.6;100;98620;;;;
2022/07/05 17:50:22;;;;;;;4;7.3;;;;;;;19.6;100;98610;;;;
2022/07/05 18:00:20;;;;;;;4;7.3;;;;;;;19.5;100;98600;;;;
2022/07/05 18:10:21;;;;;;;34.6;46;;;;;;;19.4;100;98610;;;;
2022/07/05 18:20:20;;;;;;;34.6;46;;;;;;;19.2;100;98620;;;;
2022/07/05 18:31:20;;;;;;;34.6;46;;;;;;;19;100;98640;;;;
2022/07/05 18:41:20;;;;;;;5.8;8.8;;;;;;;19;100;98640;;;;
2022/07/05 18:52:22;;;;;;;5.8;8.8;;;;;;;19;100;98650;;;;
2022/07/05 19:02:21;;;;;;;5.8;8.8;;;;;;;18.8;100;98670;;;;
2022/07/05 19:13:52;;;;;;;5.1;8.5;;;;;;;18.8;100;98670;;;;
2022/07/05 19:23:20;;;;;;;5.1;8.5;;;;;;;18.5;100;98660;;;;
2022/07/05 19:34:20;;;;;;;5.1;8.5;;;;;;;18.5;100;98640;;;;
2022/07/05 19:45:21;;;;;;;5.5;9.2;;;;;;;18.5;100;98630;;;;
2022/07/05 19:55:24;;;;;;;5.5;9.2;;;;;;;18.2;100;98630;;;;
2022/07/05 20:06:20;;;;;;;5.5;9.2;;;;;;;18.1;100;98630;;;;
2022/07/05 20:16:20;;;;;;;5.5;8.4;;;;;;;18.2;100;98630;;;;
2022/07/05 20:26:21;;;;;;;5.5;8.4;;;;;;;18.1;100;98640;;;;
2022/07/05 20:37:20;;;;;;;6.4;8.1;;;;;;;18.2;100;98650;;;;
2022/07/05 20:47:20;;;;;;;6.4;8.1;;;;;;;18.3;100;98650;;;;
2022/07/05 20:57:20;;;;;;;6.4;8.1;;;;;;;18.3;100;98650;;;;
2022/07/05 21:08:21;;;;;;;6.3;9.5;;;;;;;18;100;98640;;;;
2022/07/05 21:19:20;;;;;;;6.3;9.5;;;;;;;18;100;98640;;;;
2022/07/05 21:29:20;;;;;;;6.3;9.5;;;;;;;18;100;98640;;;;
2022/07/05 21:40:21;;;;;;;7.4;10.2;;;;;;;18;100;98640;;;;
2022/07/05 21:51:20;;;;;;;7.4;10.2;;;;;;;17.9;100;98640;;;;
2022/07/05 22:11:36;;;;;;;7.4;9.6;;;;;;;18.1;100;98630;;;;
2022/07/05 22:22:21;;;;;;;7.4;9.6;;;;;;;17.9;100;98620;;;;
2022/07/05 22:32:20;;;;;;;7.4;9.6;;;;;;;17.7;100;98630;;;;
2022/07/05 22:42:20;;;;;;;6.4;9;;;;;;;17.7;100;98620;;;;
2022/07/05 22:52:21;;;;;;;6.4;9;;;;;;;17.7;100;98620;;;;
2022/07/05 23:03:20;;;;;;;6.4;9;;;;;;;17.5;100;98610;;;;
2022/07/05 23:13:20;;;;;;;6.4;9.5;;;;;;;17.5;100;98620;;;;
2022/07/05 23:23:20;;;;;;;6.4;9.5;;;;;;;17.4;100;98620;;;;
2022/07/05 23:33:22;;;;;;;6.4;9.5;;;;;;;17.5;100;98620;;;;
2022/07/05 23:44:21;;;;;;;5.6;9.1;;;;;;;17.4;100;98630;;;;
2022/07/05 23:54:21;;;;;;;5.6;9.1;;;;;;;17.5;100;98630;;;;
